createdAt,value
2018-12-01T00:00:32.915Z,380.95
2018-12-01T00:01:07.803Z,379.57
2018-12-01T00:01:42.437Z,359.00
2018-12-01T00:02:17.135Z,360.05
2018-12-01T00:02:52.116Z,343.07
2018-12-01T00:03:26.855Z,352.80
2018-12-01T00:04:01.695Z,356.20
2018-12-01T00:04:36.335Z,335.13
2018-12-01T00:05:10.955Z,349.82
2018-12-01T00:05:45.735Z,331.50
2018-12-01T00:06:20.255Z,332.60
2018-12-01T00:06:55.115Z,335.57
2018-12-01T00:07:29.837Z,343.05
2018-12-01T00:08:04.417Z,334.52
2018-12-01T00:08:39.195Z,316.23
2018-12-01T00:09:13.855Z,312.38
2018-12-01T00:09:48.655Z,339.88
2018-12-01T00:10:23.395Z,323.55
2018-12-01T00:10:58.118Z,309.12
2018-12-01T00:11:32.875Z,309.95
2018-12-01T00:12:07.755Z,309.40
2018-12-01T00:12:42.694Z,301.88
2018-12-01T00:13:17.515Z,286.82
2018-12-01T00:13:52.455Z,319.37
2018-12-01T00:14:27.155Z,295.85
2018-12-01T00:15:01.976Z,275.87
2018-12-01T00:15:36.623Z,296.37
2018-12-01T00:16:11.423Z,260.98
2018-12-01T00:16:46.315Z,284.48
2018-12-01T00:17:21.115Z,263.43
2018-12-01T00:17:55.974Z,267.43
2018-12-01T00:18:30.615Z,270.52
2018-12-01T00:19:05.496Z,267.05
2018-12-01T00:19:40.423Z,268.75
2018-12-01T00:20:16.255Z,259.25
2018-12-01T00:20:51.034Z,258.13
2018-12-01T00:21:25.816Z,252.15
2018-12-01T00:22:00.415Z,249.55
2018-12-01T00:22:35.295Z,262.95
2018-12-01T00:23:09.915Z,253.75
2018-12-01T00:23:45.332Z,245.80
2018-12-01T00:24:19.455Z,259.05
2018-12-01T00:24:54.226Z,236.20
2018-12-01T00:25:28.975Z,205.62
2018-12-01T00:26:03.815Z,196.60
2018-12-01T00:26:38.615Z,203.77
2018-12-01T00:27:13.354Z,199.82
2018-12-01T00:27:48.074Z,199.10
2018-12-01T00:28:22.795Z,200.25
2018-12-01T00:28:57.556Z,206.60
2018-12-01T00:29:32.315Z,195.80
2018-12-01T00:30:11.195Z,208.55
2018-12-01T00:30:45.936Z,183.20
2018-12-01T00:31:20.715Z,209.60
2018-12-01T00:31:55.515Z,175.57
2018-12-01T00:32:30.195Z,199.93
2018-12-01T00:33:05.055Z,201.15
2018-12-01T00:33:39.775Z,171.05
2018-12-01T00:34:14.576Z,180.90
2018-12-01T00:34:49.235Z,168.60
2018-12-01T00:35:24.115Z,166.10
2018-12-01T00:35:58.915Z,166.00
2018-12-01T00:36:33.595Z,168.85
2018-12-01T00:37:08.415Z,174.57
2018-12-01T00:37:43.223Z,170.15
2018-12-01T00:38:17.956Z,168.52
2018-12-01T00:38:52.735Z,164.52
2018-12-01T00:39:27.475Z,183.07
2018-12-01T00:40:02.195Z,152.75
2018-12-01T00:40:36.855Z,162.35
2018-12-01T00:41:11.535Z,163.72
2018-12-01T00:41:46.263Z,169.72
2018-12-01T00:42:20.995Z,159.57
2018-12-01T00:42:55.595Z,146.30
2018-12-01T00:43:30.315Z,162.40
2018-12-01T00:44:05.035Z,146.02
2018-12-01T00:44:39.815Z,151.90
2018-12-01T00:45:16.215Z,138.82
2018-12-01T00:45:50.935Z,146.25
2018-12-01T00:46:25.615Z,135.22
2018-12-01T00:47:00.375Z,154.57
2018-12-01T00:47:35.215Z,150.47
2018-12-01T00:48:09.995Z,145.32
2018-12-01T00:48:44.655Z,141.03
2018-12-01T00:49:19.443Z,139.15
2018-12-01T00:49:54.115Z,139.88
2018-12-01T00:50:28.717Z,146.47
2018-12-01T00:51:03.375Z,144.07
2018-12-01T00:51:38.175Z,143.28
2018-12-01T00:52:12.876Z,141.73
2018-12-01T00:52:48.301Z,137.05
2018-12-01T00:53:23.103Z,135.78
2018-12-01T00:53:57.955Z,139.95
2018-12-01T00:54:32.715Z,123.87
2018-12-01T00:55:09.955Z,125.60
2018-12-01T00:55:44.663Z,143.30
2018-12-01T00:56:19.435Z,127.97
2018-12-01T00:56:54.235Z,145.80
2018-12-01T00:57:28.995Z,134.12
2018-12-01T00:58:03.695Z,116.82
2018-12-01T00:58:38.616Z,120.13
2018-12-01T00:59:13.335Z,117.97
2018-12-01T00:59:48.194Z,128.72
2018-12-01T01:00:26.337Z,112.88
2018-12-01T01:01:01.256Z,113.10
2018-12-01T01:01:36.055Z,113.20
2018-12-01T01:02:14.835Z,112.05
2018-12-01T01:02:53.894Z,125.15
2018-12-01T01:03:28.635Z,109.65
2018-12-01T01:04:03.615Z,114.97
2018-12-01T01:04:38.275Z,117.10
2018-12-01T01:05:13.223Z,122.53
2018-12-01T01:05:47.834Z,113.08
2018-12-01T01:06:22.655Z,109.07
2018-12-01T01:06:57.194Z,115.65
2018-12-01T01:07:31.835Z,118.93
2018-12-01T01:08:06.655Z,125.10
2018-12-01T01:08:41.415Z,121.77
2018-12-01T01:09:16.115Z,120.02
2018-12-01T01:09:50.833Z,114.50
2018-12-01T01:10:27.395Z,105.67
2018-12-01T01:11:01.975Z,117.22
2018-12-01T01:11:36.694Z,120.55
2018-12-01T01:12:11.475Z,118.82
2018-12-01T01:12:46.435Z,114.37
2018-12-01T01:13:21.155Z,119.50
2018-12-01T01:13:55.994Z,136.05
2018-12-01T01:14:30.595Z,144.47
2018-12-01T01:15:06.154Z,112.40
2018-12-01T01:15:40.903Z,107.40
2018-12-01T01:16:15.535Z,114.32
2018-12-01T01:16:50.375Z,106.83
2018-12-01T01:17:24.995Z,113.32
2018-12-01T01:17:59.535Z,131.52
2018-12-01T01:18:34.456Z,113.97
2018-12-01T01:19:09.243Z,119.30
2018-12-01T01:19:43.964Z,103.32
2018-12-01T01:20:22.676Z,134.87
2018-12-01T01:20:57.579Z,101.45
2018-12-01T01:21:32.395Z,113.95
2018-12-01T01:22:07.215Z,112.60
2018-12-01T01:22:41.895Z,104.17
2018-12-01T01:23:16.595Z,112.72
2018-12-01T01:23:51.355Z,106.12
2018-12-01T01:24:26.094Z,106.43
2018-12-01T01:25:00.831Z,112.72
2018-12-01T01:25:35.775Z,114.77
2018-12-01T01:26:10.543Z,112.65
2018-12-01T01:26:45.516Z,125.53
2018-12-01T01:27:20.324Z,134.78
2018-12-01T01:27:55.074Z,108.22
2018-12-01T01:28:29.755Z,103.50
2018-12-01T01:29:04.655Z,111.35
2018-12-01T01:29:39.415Z,112.97
2018-12-01T01:30:23.585Z,135.57
2018-12-01T01:30:58.722Z,113.68
2018-12-01T01:31:33.470Z,117.77
2018-12-01T01:32:08.157Z,105.43
2018-12-01T01:32:42.795Z,103.12
2018-12-01T01:33:28.695Z,111.17
2018-12-01T01:34:03.255Z,119.90
2018-12-01T01:34:37.896Z,115.30
2018-12-01T01:35:12.660Z,111.42
2018-12-01T01:35:47.455Z,114.30
2018-12-01T01:36:22.135Z,123.38
2018-12-01T01:36:56.868Z,130.55
2018-12-01T01:37:31.515Z,112.83
2018-12-01T01:38:06.523Z,122.90
2018-12-01T01:38:41.215Z,109.92
2018-12-01T01:39:15.995Z,105.92
2018-12-01T01:39:50.555Z,110.40
2018-12-01T01:40:25.357Z,112.65
2018-12-01T01:41:05.075Z,119.13
2018-12-01T01:41:39.700Z,100.12
2018-12-01T01:42:14.395Z,111.83
2018-12-01T01:42:49.075Z,95.87
2018-12-01T01:43:23.735Z,105.10
2018-12-01T01:43:58.375Z,108.80
2018-12-01T01:44:33.115Z,112.72
2018-12-01T01:45:15.975Z,119.10
2018-12-01T01:45:50.775Z,110.17
2018-12-01T01:46:25.383Z,114.17
2018-12-01T01:47:00.175Z,113.68
2018-12-01T01:47:34.855Z,108.45
2018-12-01T01:48:09.997Z,105.52
2018-12-01T01:48:44.655Z,110.17
2018-12-01T01:49:19.455Z,103.87
2018-12-01T01:49:54.174Z,104.75
2018-12-01T01:50:28.895Z,109.22
2018-12-01T01:51:03.474Z,122.72
2018-12-01T01:51:38.195Z,104.50
2018-12-01T01:52:12.935Z,110.83
2018-12-01T01:52:47.498Z,103.85
2018-12-01T01:53:22.295Z,115.20
2018-12-01T01:53:57.036Z,111.30
2018-12-01T01:54:31.695Z,112.60
2018-12-01T01:55:07.955Z,112.12
2018-12-01T01:55:42.776Z,102.75
2018-12-01T01:56:17.455Z,116.93
2018-12-01T01:56:52.195Z,105.03
2018-12-01T01:57:26.916Z,115.10
2018-12-01T01:58:01.775Z,94.90
2018-12-01T01:58:36.435Z,103.02
2018-12-01T01:59:10.996Z,105.20
2018-12-01T01:59:45.735Z,96.53
2018-12-01T02:00:21.477Z,94.95
2018-12-01T02:00:56.119Z,93.27
2018-12-01T02:01:30.756Z,90.35
2018-12-01T02:02:05.596Z,95.15
2018-12-01T02:02:40.276Z,85.25
2018-12-01T02:03:15.076Z,103.02
2018-12-01T02:03:49.696Z,92.35
2018-12-01T02:04:24.395Z,93.87
2018-12-01T02:04:58.955Z,89.15
2018-12-01T02:05:33.535Z,85.38
2018-12-01T02:06:08.295Z,92.50
2018-12-01T02:06:43.096Z,94.52
2018-12-01T02:07:17.676Z,88.12
2018-12-01T02:07:52.357Z,92.78
2018-12-01T02:08:26.940Z,87.67
2018-12-01T02:09:01.696Z,87.33
2018-12-01T02:09:36.457Z,91.10
2018-12-01T02:10:12.162Z,90.38
2018-12-01T02:10:46.935Z,80.15
2018-12-01T02:11:21.576Z,80.77
2018-12-01T02:11:56.363Z,77.22
2018-12-01T02:12:31.016Z,76.55
2018-12-01T02:13:05.756Z,88.90
2018-12-01T02:13:40.416Z,81.95
2018-12-01T02:14:15.036Z,92.67
2018-12-01T02:14:49.876Z,82.22
2018-12-01T02:15:24.696Z,86.30
2018-12-01T02:15:59.376Z,81.47
2018-12-01T02:16:34.117Z,78.65
2018-12-01T02:17:08.843Z,79.00
2018-12-01T02:17:43.541Z,81.10
2018-12-01T02:18:18.356Z,85.25
2018-12-01T02:18:53.275Z,96.22
2018-12-01T02:19:28.137Z,91.65
2018-12-01T02:20:02.935Z,82.40
2018-12-01T02:20:37.556Z,79.35
2018-12-01T02:21:12.377Z,85.65
2018-12-01T02:21:46.916Z,85.72
2018-12-01T02:22:28.276Z,84.67
2018-12-01T02:23:09.375Z,84.95
2018-12-01T02:23:44.055Z,70.05
2018-12-01T02:24:18.715Z,85.77
2018-12-01T02:24:53.415Z,88.30
2018-12-01T02:25:28.276Z,79.10
2018-12-01T02:26:03.044Z,71.62
2018-12-01T02:26:37.577Z,87.67
2018-12-01T02:27:12.436Z,78.45
2018-12-01T02:27:47.375Z,84.65
2018-12-01T02:28:22.256Z,82.37
2018-12-01T02:28:57.016Z,87.97
2018-12-01T02:29:31.696Z,78.45
2018-12-01T02:30:22.418Z,83.78
2018-12-01T02:30:56.996Z,84.25
2018-12-01T02:31:31.677Z,73.90
2018-12-01T02:32:06.476Z,92.82
2018-12-01T02:32:41.235Z,83.55
2018-12-01T02:33:16.156Z,91.12
2018-12-01T02:33:50.876Z,81.95
2018-12-01T02:34:25.556Z,78.25
2018-12-01T02:35:00.236Z,84.40
2018-12-01T02:35:34.876Z,88.80
2018-12-01T02:36:09.636Z,85.32
2018-12-01T02:36:44.417Z,84.22
2018-12-01T02:37:19.156Z,74.58
2018-12-01T02:37:55.012Z,86.87
2018-12-01T02:38:28.597Z,91.15
2018-12-01T02:39:03.317Z,77.85
2018-12-01T02:39:38.036Z,75.00
2018-12-01T02:40:13.519Z,71.90
2018-12-01T02:40:48.177Z,80.53
2018-12-01T02:41:22.917Z,70.65
2018-12-01T02:41:57.599Z,79.27
2018-12-01T02:42:32.224Z,72.60
2018-12-01T02:43:07.096Z,77.70
2018-12-01T02:44:44.936Z,75.50
2018-12-01T02:45:30.398Z,70.47
2018-12-01T02:46:15.777Z,80.47
2018-12-01T02:47:05.756Z,75.52
2018-12-01T02:47:40.436Z,74.25
2018-12-01T02:48:15.116Z,78.83
2018-12-01T02:48:49.716Z,80.22
2018-12-01T02:49:24.478Z,74.25
2018-12-01T02:49:59.217Z,77.78
2018-12-01T02:50:33.956Z,77.35
2018-12-01T02:51:08.656Z,85.20
2018-12-01T02:51:43.496Z,89.60
2018-12-01T02:52:18.256Z,89.00
2018-12-01T02:52:54.537Z,88.90
2018-12-01T02:53:29.296Z,85.28
2018-12-01T02:54:03.956Z,79.47
2018-12-01T02:54:38.717Z,94.90
2018-12-01T02:55:13.376Z,95.50
2018-12-01T02:55:48.096Z,91.85
2018-12-01T02:56:22.896Z,81.82
2018-12-01T02:56:57.675Z,81.92
2018-12-01T02:57:32.396Z,78.62
2018-12-01T02:58:07.288Z,79.92
2018-12-01T02:58:41.995Z,86.60
2018-12-01T02:59:16.696Z,88.65
2018-12-01T02:59:51.536Z,80.67
2018-12-01T03:00:26.359Z,72.53
2018-12-01T03:01:00.996Z,85.67
2018-12-01T03:01:35.718Z,72.50
2018-12-01T03:02:10.376Z,88.22
2018-12-01T03:02:45.096Z,84.87
2018-12-01T03:03:19.776Z,74.03
2018-12-01T03:03:54.636Z,75.87
2018-12-01T03:04:29.397Z,77.50
2018-12-01T03:05:04.216Z,78.10
2018-12-01T03:05:38.935Z,77.22
2018-12-01T03:06:13.776Z,88.92
2018-12-01T03:06:48.536Z,75.95
2018-12-01T03:07:23.198Z,71.33
2018-12-01T03:07:58.076Z,71.22
2018-12-01T03:13:36.596Z,58.87
2018-12-01T03:14:11.416Z,68.70
2018-12-01T03:14:46.179Z,66.00
2018-12-01T03:15:21.257Z,68.00
2018-12-01T03:15:55.796Z,78.52
2018-12-01T03:16:30.336Z,77.72
2018-12-01T03:17:05.038Z,72.37
2018-12-01T03:17:39.716Z,81.72
2018-12-01T03:18:14.275Z,90.07
2018-12-01T03:18:49.016Z,80.65
2018-12-01T03:19:23.816Z,74.37
2018-12-01T03:19:58.556Z,78.97
2018-12-01T03:20:33.275Z,75.78
2018-12-01T03:21:07.937Z,71.57
2018-12-01T03:21:42.396Z,76.17
2018-12-01T03:22:17.056Z,76.28
2018-12-01T03:22:51.836Z,75.60
2018-12-01T03:23:26.616Z,73.62
2018-12-01T03:24:01.378Z,72.05
2018-12-01T03:24:36.076Z,74.42
2018-12-01T03:25:11.936Z,76.07
2018-12-01T03:25:46.816Z,82.02
2018-12-01T03:26:21.580Z,77.45
2018-12-01T03:26:56.296Z,81.87
2018-12-01T03:27:35.796Z,72.92
2018-12-01T03:28:10.556Z,82.65
2018-12-01T03:28:45.236Z,88.25
2018-12-01T03:29:20.136Z,78.45
2018-12-01T03:29:54.836Z,81.72
2018-12-01T03:30:29.557Z,85.95
2018-12-01T03:31:04.205Z,84.40
2018-12-01T03:31:39.297Z,75.72
2018-12-01T03:32:14.017Z,88.95
2018-12-01T03:32:49.290Z,81.47
2018-12-01T03:33:23.995Z,76.95
2018-12-01T03:33:58.680Z,79.42
2018-12-01T03:34:33.279Z,72.62
2018-12-01T03:35:12.439Z,77.42
2018-12-01T03:35:47.097Z,75.85
2018-12-01T03:36:21.816Z,79.55
2018-12-01T03:36:56.656Z,74.82
2018-12-01T03:37:31.356Z,69.05
2018-12-01T03:38:06.196Z,84.28
2018-12-01T03:38:40.960Z,66.77
2018-12-01T03:39:15.636Z,74.85
2018-12-01T03:39:50.535Z,81.12
2018-12-01T03:40:25.235Z,68.52
2018-12-01T03:40:59.979Z,77.95
2018-12-01T03:41:34.776Z,73.57
2018-12-01T03:42:09.517Z,73.42
2018-12-01T03:42:44.236Z,67.53
2018-12-01T03:43:18.922Z,72.62
2018-12-01T03:43:53.695Z,72.12
2018-12-01T03:44:28.437Z,66.67
2018-12-01T03:45:03.195Z,74.22
2018-12-01T03:45:37.884Z,91.53
2018-12-01T03:46:12.555Z,75.72
2018-12-01T03:46:47.178Z,73.75
2018-12-01T03:47:21.756Z,77.70
2018-12-01T03:47:56.396Z,73.33
2018-12-01T03:48:31.035Z,73.35
2018-12-01T03:49:05.896Z,65.20
2018-12-01T03:49:40.595Z,83.65
2018-12-01T03:50:21.542Z,77.53
2018-12-01T03:50:56.336Z,72.30
2018-12-01T03:51:31.137Z,86.25
2018-12-01T03:52:05.936Z,78.80
2018-12-01T03:52:40.741Z,88.30
2018-12-01T03:53:15.376Z,82.42
2018-12-01T03:53:50.036Z,80.65
2018-12-01T03:54:24.837Z,84.60
2018-12-01T03:54:59.576Z,75.22
2018-12-01T03:55:35.157Z,77.03
2018-12-01T03:56:09.816Z,78.85
2018-12-01T03:56:44.476Z,87.10
2018-12-01T03:57:19.175Z,86.65
2018-12-01T03:57:53.876Z,76.12
2018-12-01T03:58:28.476Z,82.10
2018-12-01T03:59:03.216Z,69.12
2018-12-01T03:59:37.916Z,77.75
2018-12-01T04:00:12.815Z,74.25
2018-12-01T04:00:47.575Z,86.15
2018-12-01T04:01:22.279Z,105.43
2018-12-01T04:01:56.815Z,106.17
2018-12-01T04:02:31.456Z,119.37
2018-12-01T04:03:07.798Z,117.40
2018-12-01T04:03:42.696Z,138.40
2018-12-01T04:04:17.498Z,130.03
2018-12-01T04:04:52.115Z,99.65
2018-12-01T04:05:26.939Z,116.25
2018-12-01T04:06:01.636Z,108.85
2018-12-01T04:06:36.339Z,118.65
2018-12-01T04:07:11.016Z,123.67
2018-12-01T04:07:45.757Z,115.37
2018-12-01T04:08:20.476Z,109.52
2018-12-01T04:08:55.196Z,118.45
2018-12-01T04:09:29.816Z,110.08
2018-12-01T04:10:04.578Z,116.25
2018-12-01T04:10:39.276Z,124.35
2018-12-01T04:11:14.035Z,102.78
2018-12-01T04:11:48.715Z,103.92
2018-12-01T04:12:23.395Z,95.77
2018-12-01T04:12:58.399Z,104.58
2018-12-01T04:13:33.104Z,101.15
2018-12-01T04:14:07.818Z,102.87
2018-12-01T04:14:42.595Z,100.72
2018-12-01T04:15:17.355Z,96.50
2018-12-01T04:15:51.995Z,101.40
2018-12-01T04:16:26.756Z,104.27
2018-12-01T04:17:01.337Z,104.38
2018-12-01T04:17:36.056Z,96.85
2018-12-01T04:18:10.876Z,106.87
2018-12-01T04:18:45.715Z,100.60
2018-12-01T04:19:20.395Z,108.12
2018-12-01T04:24:58.556Z,73.47
2018-12-01T04:25:33.236Z,79.77
2018-12-01T04:26:08.016Z,82.22
2018-12-01T04:26:42.776Z,98.90
2018-12-01T04:27:17.555Z,94.25
2018-12-01T04:27:52.256Z,89.25
2018-12-01T04:28:27.096Z,103.47
2018-12-01T04:29:01.855Z,102.62
2018-12-01T04:29:36.595Z,99.07
2018-12-01T04:30:17.435Z,105.67
2018-12-01T04:30:52.236Z,83.90
2018-12-01T04:31:26.976Z,88.40
2018-12-01T04:32:01.636Z,81.28
2018-12-01T04:32:36.416Z,88.40
2018-12-01T04:33:11.095Z,93.65
2018-12-01T04:33:45.716Z,94.00
2018-12-01T04:34:23.256Z,86.05
2018-12-01T04:34:58.035Z,84.62
2018-12-01T04:35:32.836Z,82.53
2018-12-01T04:36:07.736Z,93.37
2018-12-01T04:36:42.357Z,86.15
2018-12-01T04:37:16.955Z,79.80
2018-12-01T04:37:53.244Z,86.45
2018-12-01T04:38:27.895Z,82.45
2018-12-01T04:39:02.696Z,79.87
2018-12-01T04:39:37.515Z,79.10
2018-12-01T04:40:12.435Z,87.22
2018-12-01T04:40:47.315Z,91.47
2018-12-01T04:41:22.015Z,76.80
2018-12-01T04:41:56.736Z,78.12
2018-12-01T04:42:31.395Z,80.40
2018-12-01T04:43:06.375Z,80.40
2018-12-01T04:43:41.095Z,83.62
2018-12-01T04:44:15.856Z,86.75
2018-12-01T04:44:50.577Z,83.10
2018-12-01T04:45:25.295Z,85.70
2018-12-01T04:46:00.077Z,84.60
2018-12-01T04:46:34.683Z,84.60
2018-12-01T04:47:09.495Z,86.55
2018-12-01T04:47:44.217Z,83.82
2018-12-01T04:48:18.975Z,95.22
2018-12-01T04:48:53.636Z,89.22
2018-12-01T04:49:28.255Z,75.55
2018-12-01T04:50:02.775Z,77.27
2018-12-01T04:50:37.656Z,82.72
2018-12-01T04:51:12.475Z,75.08
2018-12-01T04:51:47.176Z,89.60
2018-12-01T04:52:21.858Z,83.42
2018-12-01T04:52:56.596Z,79.20
2018-12-01T04:53:31.255Z,77.85
2018-12-01T04:54:06.183Z,78.92
2018-12-01T04:54:41.015Z,85.38
2018-12-01T04:55:16.697Z,87.50
2018-12-01T04:55:51.355Z,83.55
2018-12-01T04:56:26.315Z,87.08
2018-12-01T04:57:00.975Z,77.92
2018-12-01T04:57:35.795Z,89.97
2018-12-01T04:58:10.475Z,82.80
2018-12-01T04:58:45.175Z,90.57
2018-12-01T04:59:19.675Z,81.50
2018-12-01T04:59:54.195Z,75.97
2018-12-01T05:00:28.875Z,70.97
2018-12-01T05:01:03.615Z,85.83
2018-12-01T05:01:38.455Z,81.47
2018-12-01T05:02:13.055Z,87.45
2018-12-01T05:02:47.696Z,83.22
2018-12-01T05:03:22.415Z,84.30
2018-12-01T05:03:57.135Z,85.00
2018-12-01T05:04:31.756Z,85.60
2018-12-01T05:05:07.777Z,74.37
2018-12-01T05:05:42.535Z,78.97
2018-12-01T05:06:17.155Z,84.70
2018-12-01T05:06:52.055Z,79.27
2018-12-01T05:07:26.755Z,79.25
2018-12-01T05:08:01.503Z,69.62
2018-12-01T05:08:36.244Z,83.40
2018-12-01T05:09:10.855Z,80.12
2018-12-01T05:09:45.496Z,81.87
2018-12-01T05:10:21.383Z,72.97
2018-12-01T05:10:56.137Z,91.53
2018-12-01T05:11:30.916Z,79.00
2018-12-01T05:12:06.175Z,83.82
2018-12-01T05:12:40.855Z,79.50
2018-12-01T05:13:15.536Z,84.77
2018-12-01T05:13:50.363Z,74.80
2018-12-01T05:14:25.055Z,66.00
2018-12-01T05:14:59.815Z,79.32
2018-12-01T05:15:34.555Z,74.92
2018-12-01T05:16:09.219Z,71.80
2018-12-01T05:16:43.875Z,79.42
2018-12-01T05:17:18.495Z,81.57
2018-12-01T05:17:53.277Z,73.12
2018-12-01T05:18:27.975Z,83.10
2018-12-01T05:19:02.656Z,70.55
2018-12-01T05:19:37.375Z,78.62
2018-12-01T05:20:13.415Z,87.82
2018-12-01T05:20:48.175Z,88.85
2018-12-01T05:21:22.895Z,80.40
2018-12-01T05:21:57.575Z,85.72
2018-12-01T05:22:32.435Z,83.40
2018-12-01T05:23:07.076Z,81.63
2018-12-01T05:23:41.875Z,90.45
2018-12-01T05:24:16.475Z,82.30
2018-12-01T05:24:51.076Z,86.45
2018-12-01T05:25:25.655Z,81.35
2018-12-01T05:26:00.295Z,81.78
2018-12-01T05:26:34.956Z,80.03
2018-12-01T05:27:09.655Z,81.35
2018-12-01T05:27:44.255Z,74.77
2018-12-01T05:28:18.876Z,73.97
2018-12-01T05:28:53.556Z,76.22
2018-12-01T05:29:28.279Z,87.55
2018-12-01T05:30:03.163Z,108.42
2018-12-01T05:30:37.796Z,90.55
2018-12-01T05:31:12.475Z,89.03
2018-12-01T05:31:47.207Z,91.97
2018-12-01T05:32:21.836Z,85.07
2018-12-01T05:32:56.616Z,83.10
2018-12-01T05:33:31.416Z,92.80
2018-12-01T05:34:06.315Z,91.40
2018-12-01T05:34:41.036Z,87.00
2018-12-01T05:35:17.995Z,85.87
2018-12-01T05:35:52.715Z,89.20
2018-12-01T05:36:27.495Z,81.22
2018-12-01T05:37:02.235Z,80.45
2018-12-01T05:37:36.835Z,81.53
2018-12-01T05:38:11.555Z,85.40
2018-12-01T05:38:46.316Z,77.05
2018-12-01T05:39:21.064Z,81.70
2018-12-01T05:39:55.887Z,77.15
2018-12-01T05:40:30.631Z,89.72
2018-12-01T05:41:05.337Z,88.60
2018-12-01T05:41:39.918Z,93.62
2018-12-01T05:42:14.595Z,86.53
2018-12-01T05:42:49.402Z,101.72
2018-12-01T05:43:24.095Z,95.28
2018-12-01T05:43:59.035Z,86.80
2018-12-01T05:44:33.715Z,107.80
2018-12-01T05:45:10.682Z,101.20
2018-12-01T05:45:45.441Z,95.57
2018-12-01T05:46:20.215Z,103.30
2018-12-01T05:46:54.898Z,102.12
2018-12-01T05:47:29.575Z,96.85
2018-12-01T05:48:04.375Z,92.92
2018-12-01T05:48:39.195Z,104.10
2018-12-01T05:49:14.115Z,100.97
2018-12-01T05:49:48.877Z,100.92
2018-12-01T05:50:24.155Z,95.83
2018-12-01T05:50:59.075Z,87.53
2018-12-01T05:51:33.875Z,86.57
2018-12-01T05:52:08.795Z,97.15
2018-12-01T05:52:43.635Z,92.10
2018-12-01T05:53:18.483Z,88.47
2018-12-01T05:53:53.495Z,113.97
2018-12-01T05:54:28.375Z,106.00
2018-12-01T05:55:03.419Z,108.27
2018-12-01T05:55:38.215Z,102.22
2018-12-01T05:56:12.939Z,105.00
2018-12-01T05:56:47.619Z,113.28
2018-12-01T05:57:22.319Z,115.30
2018-12-01T05:57:57.059Z,112.30
2018-12-01T05:58:31.759Z,108.20
2018-12-01T05:59:06.440Z,112.92
2018-12-01T05:59:41.199Z,109.97
2018-12-01T06:00:16.779Z,109.10
2018-12-01T06:00:51.539Z,105.55
2018-12-01T06:01:26.119Z,110.30
2018-12-01T06:02:00.859Z,104.38
2018-12-01T06:02:35.499Z,116.75
2018-12-01T06:03:10.259Z,117.28
2018-12-01T06:03:44.919Z,121.77
2018-12-01T06:04:19.779Z,125.92
2018-12-01T06:04:54.441Z,127.53
2018-12-01T06:05:29.220Z,135.32
2018-12-01T06:06:03.940Z,134.05
2018-12-01T06:06:38.539Z,138.18
2018-12-01T06:07:13.380Z,128.82
2018-12-01T06:07:48.059Z,145.02
2018-12-01T06:08:22.800Z,141.32
2018-12-01T06:08:57.680Z,147.32
2018-12-01T06:09:32.527Z,146.75
2018-12-01T06:10:11.379Z,143.90
2018-12-01T06:10:46.080Z,139.80
2018-12-01T06:11:21.339Z,138.85
2018-12-01T06:11:56.123Z,142.37
2018-12-01T06:12:30.639Z,158.57
2018-12-01T06:13:05.479Z,132.87
2018-12-01T06:13:40.079Z,131.15
2018-12-01T06:14:14.699Z,128.40
2018-12-01T06:14:49.488Z,139.88
2018-12-01T06:15:24.180Z,147.20
2018-12-01T06:15:58.783Z,144.05
2018-12-01T06:16:33.439Z,149.32
2018-12-01T06:17:08.239Z,141.50
2018-12-01T06:17:43.267Z,158.42
2018-12-01T06:18:18.067Z,172.75
2018-12-01T06:18:52.919Z,157.12
2018-12-01T06:19:27.620Z,151.05
2018-12-01T06:20:02.459Z,151.25
2018-12-01T06:20:37.108Z,151.50
2018-12-01T06:21:11.861Z,126.62
2018-12-01T06:21:46.639Z,133.25
2018-12-01T06:22:21.242Z,126.42
2018-12-01T06:22:55.820Z,109.30
2018-12-01T06:23:30.580Z,134.25
2018-12-01T06:24:05.421Z,120.50
2018-12-01T06:24:40.299Z,120.95
2018-12-01T06:25:16.160Z,127.87
2018-12-01T06:25:50.979Z,130.27
2018-12-01T06:26:25.539Z,134.30
2018-12-01T06:27:00.181Z,128.07
2018-12-01T06:27:34.841Z,140.95
2018-12-01T06:28:09.579Z,137.00
2018-12-01T06:28:44.160Z,118.53
2018-12-01T06:29:18.940Z,121.33
2018-12-01T06:29:53.620Z,140.15
2018-12-01T06:30:28.440Z,153.38
2018-12-01T06:31:03.100Z,143.93
2018-12-01T06:31:37.859Z,146.65
2018-12-01T06:32:12.659Z,141.85
2018-12-01T06:32:47.900Z,128.60
2018-12-01T06:33:22.528Z,146.90
2018-12-01T06:33:57.200Z,124.78
2018-12-01T06:34:31.859Z,127.82
2018-12-01T06:35:06.840Z,134.10
2018-12-01T06:35:41.680Z,124.97
2018-12-01T06:36:16.340Z,122.37
2018-12-01T06:36:50.960Z,133.90
2018-12-01T06:37:25.700Z,132.55
2018-12-01T06:38:00.440Z,115.72
2018-12-01T06:38:35.199Z,130.37
2018-12-01T06:39:10.239Z,123.00
2018-12-01T06:39:44.940Z,124.65
2018-12-01T06:40:20.499Z,125.00
2018-12-01T06:40:55.290Z,144.10
2018-12-01T06:41:29.939Z,130.93
2018-12-01T06:42:04.622Z,148.20
2018-12-01T06:42:39.500Z,146.62
2018-12-01T06:43:14.240Z,139.37
2018-12-01T06:43:48.940Z,140.37
2018-12-01T06:44:23.580Z,137.05
2018-12-01T06:44:58.299Z,125.35
2018-12-01T06:45:32.900Z,130.93
2018-12-01T06:46:07.619Z,138.80
2018-12-01T06:46:42.420Z,118.05
2018-12-01T06:47:17.142Z,133.67
2018-12-01T06:47:51.908Z,132.75
2018-12-01T06:48:26.727Z,140.25
2018-12-01T06:49:03.168Z,124.70
2018-12-01T06:49:38.188Z,123.62
2018-12-01T06:50:13.908Z,136.68
2018-12-01T06:50:48.571Z,144.82
2018-12-01T06:51:23.300Z,130.57
2018-12-01T06:51:58.120Z,122.30
2018-12-01T06:52:32.759Z,111.83
2018-12-01T06:53:07.660Z,114.92
2018-12-01T06:53:42.428Z,111.08
2018-12-01T06:54:17.300Z,118.85
2018-12-01T06:54:52.020Z,131.57
2018-12-01T06:55:26.699Z,118.55
2018-12-01T06:56:01.389Z,128.78
2018-12-01T06:56:36.140Z,134.10
2018-12-01T06:57:10.951Z,135.78
2018-12-01T06:57:46.808Z,134.70
2018-12-01T06:58:21.624Z,159.52
2018-12-01T06:58:56.428Z,125.50
2018-12-01T06:59:31.088Z,116.45
2018-12-01T07:00:22.461Z,133.78
2018-12-01T07:00:57.141Z,122.22
2018-12-01T07:01:31.988Z,135.45
2018-12-01T07:02:07.088Z,107.78
2018-12-01T07:02:42.050Z,117.97
2018-12-01T07:03:16.948Z,119.50
2018-12-01T07:03:51.868Z,137.62
2018-12-01T07:04:26.720Z,112.15
2018-12-01T07:05:01.572Z,111.22
2018-12-01T07:05:36.348Z,116.17
2018-12-01T07:06:11.240Z,125.30
2018-12-01T07:06:46.180Z,111.20
2018-12-01T07:07:20.968Z,112.68
2018-12-01T07:07:56.040Z,113.80
2018-12-01T07:08:31.052Z,108.32
2018-12-01T07:09:09.360Z,107.65
2018-12-01T07:09:44.048Z,118.13
2018-12-01T07:10:20.549Z,107.43
2018-12-01T07:10:55.428Z,118.47
2018-12-01T07:11:30.199Z,111.77
2018-12-01T07:12:05.207Z,103.53
2018-12-01T07:12:40.160Z,111.88
2018-12-01T07:13:15.008Z,108.20
2018-12-01T07:13:49.947Z,106.37
2018-12-01T07:14:24.770Z,113.00
2018-12-01T07:14:59.420Z,114.77
2018-12-01T07:15:37.528Z,123.78
2018-12-01T07:16:12.300Z,109.07
2018-12-01T07:16:46.967Z,111.03
2018-12-01T07:17:21.727Z,123.02
2018-12-01T07:17:56.388Z,118.08
2018-12-01T07:18:41.708Z,115.32
2018-12-01T07:19:19.268Z,125.15
2018-12-01T07:19:54.129Z,114.00
2018-12-01T07:20:28.839Z,122.65
2018-12-01T07:21:03.542Z,118.40
2018-12-01T07:21:38.387Z,111.05
2018-12-01T07:22:13.160Z,111.92
2018-12-01T07:22:47.959Z,103.95
2018-12-01T07:23:22.619Z,107.85
2018-12-01T07:23:57.301Z,96.05
2018-12-01T07:24:32.040Z,104.72
2018-12-01T07:25:07.259Z,102.95
2018-12-01T07:25:42.019Z,96.02
2018-12-01T07:26:16.805Z,90.55
2018-12-01T07:26:51.440Z,109.05
2018-12-01T07:27:26.100Z,106.75
2018-12-01T07:28:00.799Z,100.58
2018-12-01T07:28:35.359Z,133.90
2018-12-01T07:29:09.963Z,120.77
2018-12-01T07:29:44.639Z,97.97
2018-12-01T07:30:19.327Z,94.85
2018-12-01T07:30:53.979Z,103.55
2018-12-01T07:31:28.759Z,85.57
2018-12-01T07:32:03.448Z,85.12
2018-12-01T07:32:38.163Z,100.75
2018-12-01T07:33:12.827Z,94.65
2018-12-01T07:33:47.420Z,96.92
2018-12-01T07:34:22.187Z,95.35
2018-12-01T07:34:56.927Z,105.47